Shirley, IL (61772)

12:11 PM CST on February 13, 2016 (GMT -0600)
Funk Farms Trust | | Change Station
CLOSE
Current Station
Personal Weather Station
Location: Shirley, IL
Elevation: 709 ft
Nearby Weather Stations
Active Advisory: Winter Weather Advisory

Elev 709 ft 40.38 °N, 89.06 °W | Updated 6 minutes ago

Clear
Clear
17.6 °F
Feels Like 18 °F
N
2.7
Wind Variable Wind from NNE

Today
High -- | Low -- °F
--% Chance of Precip.
Yesterday
High -- | Low -- °F
Precip. -- in
Pressure 30.69 in
Visibility 10.0 miles
Clouds Clear
Windchill 18 °F
Dew Point -1 °F
Humidity 44%
Rainfall 0.00 in
Snow Depth Not available.
6:52 AM 5:28 PM
Waxing Crescent, 33% visible
METAR KBMI 131756Z 35006KT 10SM CLR M09/M20 A3059 RMK AO2 58009 T10881200 11088 21161 SLP391
Pressure 30.69 in
Visibility 10.0 miles
Clouds Clear
Windchill 18 °F
Dew Point -1 °F
Humidity 44%
Rainfall 0.00 in
Snow Depth Not available.
6:52 AM 5:28 PM
Waxing Crescent, 33% visible
METAR KBMI 131756Z 35006KT 10SM CLR M09/M20 A3059 RMK AO2 58009 T10881200 11088 21161 SLP391

10-Day Weather Forecast

Almanac

Astronomy

Feb. 13, 2016 Rise Set
Actual Time
Civil Twilight
Nautical Twilight
Astronomical Twilight
Moon
Length of Visible Light
Length of Day
Tomorrow will be .
, % of the Moon is Illuminated

Today's Extremes

State Highs State Lows

Community

WunderPhotos

Upload Photos

1,892,632 photos uploaded!

WunderBlog® & News

Nearby

Air Quality

  Air Quality AQ Index Pollutant
Not available.

Snow Depth

Station Depth Elevation

Earthquake Activity

City Distance Mag. Time & Date
Minimum magnitude displayed is 2.5.

Coastal Water Temperatures

Place Temperature

Stations

Nearby Weather Stations

Station Location Temp. Windchill Dew Point Humidity Wind Precip. Elev Updated Type
                   

Watches & Warnings

Winter Weather Advisory
Issued: 8:31 AM CST Feb. 13, 2016 – National Weather Service

... Winter Weather Advisory remains in effect from 3 am to 6 PM
CST Sunday...

* timing... snow developing across extreme west central Illinois
after midnight... and by dawn Sunday over east central through
southeast Illinois.

* Snow accumulations... around 3 inches over most of the area
with totals around 4 inches along and northwest of the
Illinois River by late Sunday afternoon.

* Wind... southeast at 15 to 20 mph... with gusts near 25 mph at
times.

* Main impact... hazardous travel conditions due to snow and low
visibilities... as well as blowing and drifting snow.

Precautionary/preparedness actions...

A Winter Weather Advisory for snow means that periods of snow
will cause primarily travel difficulties. Be prepared for snow
covered roads and limited visibilities... and use caution while
driving.